Aviation Digital Data Service (ADDS)

Output produced by METARs form (0926 UTC 25 October 2014)
found at http://aviationweather.gov/adds/metars/
 
KBHB 250859Z 2509/2606 33008KT P6SM OVC015 
     FM250900 32004KT P6SM BKN050 
     FM251200 31005KT P6SM SCT050 
     FM252000 19004KT P6SM SCT100 
     FM260500 16004KT P6SM BKN100 AMD LTD TO CLD VIS AND WIND